Time;durP1;ratioP1;P1;durP2;ratioP2;P2;SDS_P1;SDS_P2;PMS_P1;PMS_P2;Temp;Humidity;BMP_temperature;BMP_pressure;BME280_temperature;BME280_humidity;BME280_pressure;Samples;Min_cycle;Max_cycle;Signal;HPM_P1;HPM_P2
2022/09/25 00:01:07;;;;;;;122.35;46.92;;;;;;;;;;6206456;28;20624;-56
2022/09/25 00:04:19;;;;;;;145.13;54.97;;;;;;;;;;6212731;28;20054;-56
2022/09/25 00:07:19;;;;;;;127.75;51.88;;;;;;;;;;6210876;28;20096;-57
2022/09/25 00:10:20;;;;;;;130.80;50.08;;;;;;;;;;6208187;28;20077;-57
2022/09/25 00:13:21;;;;;;;113.25;45.22;;;;;;;;;;6209426;28;20058;-55
2022/09/25 00:16:25;;;;;;;120.55;48.10;;;;;;;;;;6211255;28;20168;-56
2022/09/25 00:22:46;;;;;;;126.05;50.85;;;;;;;;;;6208511;28;20630;-57
2022/09/25 00:25:52;;;;;;;124.35;48.50;;;;;;;;;;6210589;28;20052;-55
2022/09/25 00:28:53;;;;;;;122.72;48.28;;;;;;;;;;6209132;28;20577;-56
2022/09/25 00:31:55;;;;;;;137.38;54.28;;;;;;;;;;6210409;28;20060;-57
2022/09/25 00:34:55;;;;;;;134.10;48.35;;;;;;;;;;6209259;28;20145;-56
2022/09/25 00:37:56;;;;;;;126.10;48.85;;;;;;;;;;6213649;28;20119;-56
2022/09/25 00:40:57;;;;;;;131.63;51.45;;;;;;;;;;6212683;28;20045;-58
2022/09/25 00:43:59;;;;;;;124.43;48.88;;;;;;;;;;6213862;28;20131;-57
2022/09/25 00:47:00;;;;;;;128.18;49.17;;;;;;;;;;6210515;28;20493;-54
2022/09/25 00:50:10;;;;;;;119.72;48.40;;;;;;;;;;6211787;28;20053;-56
2022/09/25 00:53:15;;;;;;;138.98;52.58;;;;;;;;;;6206527;28;20402;-56
2022/09/25 00:56:16;;;;;;;118.80;48.15;;;;;;;;;;6210215;28;20485;-56
2022/09/25 00:59:21;;;;;;;123.90;49.72;;;;;;;;;;6209568;28;20161;-55
2022/09/25 01:02:35;;;;;;;129.38;50.20;;;;;;;;;;6209985;28;20092;-56
2022/09/25 01:05:41;;;;;;;128.43;49.78;;;;;;;;;;6211557;28;20505;-56
2022/09/25 01:08:44;;;;;;;124.47;50.17;;;;;;;;;;6211627;28;20497;-58
2022/09/25 01:11:45;;;;;;;128.15;51.42;;;;;;;;;;6209249;28;20072;-54
2022/09/25 01:14:45;;;;;;;130.90;49.13;;;;;;;;;;6206471;28;20053;-55
2022/09/25 01:18:01;;;;;;;121.07;49.95;;;;;;;;;;6209724;28;20049;-58
2022/09/25 01:21:18;;;;;;;132.13;51.92;;;;;;;;;;6206140;28;20056;-57
2022/09/25 01:24:41;;;;;;;128.90;50.92;;;;;;;;;;6209128;28;20475;-53
2022/09/25 01:27:50;;;;;;;;;;;;;;;;;;6207761;28;20614;-58
2022/09/25 01:31:00;;;;;;;131.50;50.17;;;;;;;;;;6208819;28;20036;-57
2022/09/25 01:34:12;;;;;;;123.35;49.13;;;;;;;;;;6208802;28;20050;-56
2022/09/25 01:37:25;;;;;;;126.32;48.47;;;;;;;;;;6208555;28;20058;-56
2022/09/25 01:40:25;;;;;;;;;;;;;;;;;;6209578;28;20038;-55
2022/09/25 01:43:35;;;;;;;138.70;50.38;;;;;;;;;;6208508;28;19929;-57
2022/09/25 01:46:41;;;;;;;132.07;51.55;;;;;;;;;;6208802;28;20049;-57
2022/09/25 01:49:47;;;;;;;142.85;54.42;;;;;;;;;;6211941;28;20189;-58
2022/09/25 01:52:53;;;;;;;121.78;47.47;;;;;;;;;;6209633;28;20383;-54
2022/09/25 01:55:59;;;;;;;107.72;45.35;;;;;;;;;;6208236;28;20052;-56
2022/09/25 01:59:09;;;;;;;105.80;44.03;;;;;;;;;;6207340;28;20050;-59
2022/09/25 02:02:14;;;;;;;124.15;49.70;;;;;;;;;;6208375;28;20058;-55
2022/09/25 02:05:25;;;;;;;118.28;49.47;;;;;;;;;;6210356;28;20591;-56
2022/09/25 02:08:34;;;;;;;111.28;47.13;;;;;;;;;;6209324;28;20053;-57
2022/09/25 02:11:40;;;;;;;117.45;46.15;;;;;;;;;;6208454;28;20056;-57
2022/09/25 02:14:56;;;;;;;112.65;44.53;;;;;;;;;;6206915;28;20046;-55
2022/09/25 02:21:27;;;;;;;115.10;46.10;;;;;;;;;;6212459;28;20149;-56
2022/09/25 02:24:37;;;;;;;104.22;45.10;;;;;;;;;;6216062;28;20077;-55
2022/09/25 02:27:37;;;;;;;105.53;44.05;;;;;;;;;;6215731;28;20054;-58
2022/09/25 02:30:38;;;;;;;110.30;44.75;;;;;;;;;;6215393;28;20059;-57
2022/09/25 02:33:38;;;;;;;109.07;43.75;;;;;;;;;;6214844;28;20057;-54
2022/09/25 02:36:39;;;;;;;101.95;42.20;;;;;;;;;;6207950;28;20454;-57
2022/09/25 02:39:43;;;;;;;107.00;42.97;;;;;;;;;;6208243;28;20104;-57
2022/09/25 02:42:51;;;;;;;108.50;42.60;;;;;;;;;;6205246;28;20054;-58
2022/09/25 02:46:17;;;;;;;103.72;42.80;;;;;;;;;;6210269;28;20140;-57
2022/09/25 02:49:33;;;;;;;110.20;43.80;;;;;;;;;;6207063;28;20464;-56
2022/09/25 02:52:55;;;;;;;105.88;42.40;;;;;;;;;;6207965;28;20734;-57
2022/09/25 02:56:03;;;;;;;101.97;43.42;;;;;;;;;;6205847;28;20081;-56
2022/09/25 02:59:14;;;;;;;105.70;43.05;;;;;;;;;;6205708;28;20066;-56
2022/09/25 03:02:15;;;;;;;106.50;41.47;;;;;;;;;;6204003;28;20053;-53
2022/09/25 03:05:16;;;;;;;109.15;41.88;;;;;;;;;;6209546;28;20073;-56
2022/09/25 03:08:36;;;;;;;99.13;41.75;;;;;;;;;;6206005;28;20041;-56
2022/09/25 03:11:42;;;;;;;102.45;39.45;;;;;;;;;;6205550;28;20038;-56
2022/09/25 03:14:42;;;;;;;96.82;39.33;;;;;;;;;;6206332;28;20069;-56
2022/09/25 03:17:43;;;;;;;96.63;38.95;;;;;;;;;;6207913;28;20393;-55
2022/09/25 03:20:44;;;;;;;98.25;40.53;;;;;;;;;;6211539;28;20131;-58
2022/09/25 03:23:45;;;;;;;101.93;40.78;;;;;;;;;;6206868;28;20378;-57
2022/09/25 03:26:46;;;;;;;96.82;40.75;;;;;;;;;;6210612;28;20112;-58
2022/09/25 03:29:48;;;;;;;95.00;40.42;;;;;;;;;;6209807;28;20509;-57
2022/09/25 03:32:49;;;;;;;;;;;;;;;;;;6216233;28;20512;-56
2022/09/25 03:36:08;;;;;;;106.50;40.97;;;;;;;;;;6212162;28;19929;-60
2022/09/25 03:39:13;;;;;;;96.47;42.05;;;;;;;;;;6212622;28;20577;-57
2022/09/25 03:42:14;;;;;;;104.78;41.85;;;;;;;;;;6210882;28;20071;-58
2022/09/25 03:45:14;;;;;;;97.22;41.22;;;;;;;;;;6212872;28;20057;-59
2022/09/25 03:48:16;;;;;;;93.40;41.90;;;;;;;;;;6210879;28;20531;-54
2022/09/25 03:51:18;;;;;;;96.60;41.78;;;;;;;;;;6213737;28;20549;-57
2022/09/25 03:54:18;;;;;;;102.30;41.47;;;;;;;;;;6211330;28;20137;-56
2022/09/25 03:57:19;;;;;;;94.30;38.47;;;;;;;;;;6210921;28;20049;-56
2022/09/25 04:00:19;;;;;;;96.10;39.70;;;;;;;;;;6211926;28;21067;-57
2022/09/25 04:03:21;;;;;;;94.53;39.80;;;;;;;;;;6207675;28;20042;-57
2022/09/25 04:06:24;;;;;;;89.60;36.97;;;;;;;;;;6211093;28;20127;-56
2022/09/25 04:09:25;;;;;;;93.90;37.13;;;;;;;;;;6212551;28;20045;-57
2022/09/25 04:12:25;;;;;;;90.80;37.30;;;;;;;;;;6210266;28;20049;-58
2022/09/25 04:15:26;;;;;;;90.60;37.35;;;;;;;;;;6210883;28;20042;-57
2022/09/25 04:18:30;;;;;;;90.15;35.83;;;;;;;;;;6212467;28;20049;-57
2022/09/25 04:21:31;;;;;;;92.18;37.97;;;;;;;;;;6210467;28;20057;-56
2022/09/25 04:24:46;;;;;;;89.55;35.85;;;;;;;;;;6209116;28;20068;-57
2022/09/25 04:27:48;;;;;;;88.90;37.28;;;;;;;;;;6210916;28;20041;-56
2022/09/25 04:30:50;;;;;;;93.45;37.60;;;;;;;;;;6210246;28;20172;-57
2022/09/25 04:33:50;;;;;;;94.60;37.90;;;;;;;;;;6209589;28;20050;-56
2022/09/25 04:36:51;;;;;;;93.05;38.75;;;;;;;;;;6211548;28;20072;-57
2022/09/25 04:39:55;;;;;;;91.22;37.03;;;;;;;;;;6210599;28;20046;-56
2022/09/25 04:43:01;;;;;;;89.93;38.95;;;;;;;;;;6209675;28;20141;-55
2022/09/25 04:46:03;;;;;;;93.78;36.83;;;;;;;;;;6207780;28;20052;-57
2022/09/25 04:49:04;;;;;;;85.00;36.78;;;;;;;;;;6211730;28;20073;-58
2022/09/25 04:52:05;;;;;;;89.90;38.13;;;;;;;;;;6209974;28;20048;-60
2022/09/25 04:55:06;;;;;;;90.97;37.38;;;;;;;;;;6208780;28;20451;-54
2022/09/25 04:58:09;;;;;;;92.38;38.30;;;;;;;;;;6209603;28;20516;-56
2022/09/25 05:01:11;;;;;;;92.38;37.35;;;;;;;;;;6209979;28;20489;-58
2022/09/25 05:04:13;;;;;;;89.22;37.65;;;;;;;;;;6208666;28;20837;-57
2022/09/25 05:07:13;;;;;;;87.10;36.53;;;;;;;;;;6210994;28;20046;-56
2022/09/25 05:10:14;;;;;;;89.13;39.13;;;;;;;;;;6213899;28;20873;-56
2022/09/25 05:13:14;;;;;;;85.95;38.13;;;;;;;;;;6213797;28;20148;-57
2022/09/25 05:16:15;;;;;;;92.03;38.60;;;;;;;;;;6211339;28;20038;-57
2022/09/25 05:19:16;;;;;;;96.55;39.83;;;;;;;;;;6214946;28;21151;-56
2022/09/25 05:22:16;;;;;;;90.60;39.58;;;;;;;;;;6216589;28;20103;-57
2022/09/25 05:25:17;;;;;;;104.35;43.33;;;;;;;;;;6215480;28;20104;-56
2022/09/25 05:28:17;;;;;;;95.40;42.30;;;;;;;;;;6216792;28;20046;-58
2022/09/25 05:31:18;;;;;;;107.22;42.08;;;;;;;;;;6216741;28;20066;-57
2022/09/25 05:34:19;;;;;;;96.78;41.28;;;;;;;;;;6215395;28;20140;-59
2022/09/25 05:37:20;;;;;;;106.70;43.20;;;;;;;;;;6216323;28;20477;-56
2022/09/25 05:40:22;;;;;;;114.18;47.08;;;;;;;;;;6232355;28;20344;-58
2022/09/25 05:43:24;;;;;;;107.88;44.90;;;;;;;;;;6211114;28;20083;-56
2022/09/25 05:46:24;;;;;;;109.88;44.47;;;;;;;;;;6211436;28;20037;-57
2022/09/25 05:49:25;;;;;;;118.57;47.80;;;;;;;;;;6211259;28;20049;-57
2022/09/25 05:52:25;;;;;;;106.93;45.65;;;;;;;;;;6212114;28;20524;-55
2022/09/25 05:55:27;;;;;;;105.65;46.42;;;;;;;;;;6197000;28;20049;-57
2022/09/25 05:58:29;;;;;;;106.90;44.67;;;;;;;;;;6212146;28;20052;-57
2022/09/25 06:01:30;;;;;;;109.38;43.92;;;;;;;;;;6210446;28;20049;-57
2022/09/25 06:04:30;;;;;;;112.55;45.40;;;;;;;;;;6214526;28;20116;-59
2022/09/25 06:07:31;;;;;;;103.60;43.88;;;;;;;;;;6215069;28;20141;-57
2022/09/25 06:10:32;;;;;;;104.53;44.28;;;;;;;;;;6216917;28;20042;-58
2022/09/25 06:13:35;;;;;;;97.20;40.88;;;;;;;;;;6215386;28;20054;-57
2022/09/25 06:16:36;;;;;;;101.50;41.83;;;;;;;;;;6214906;28;20069;-57
2022/09/25 06:19:36;;;;;;;101.68;43.20;;;;;;;;;;6215114;28;20046;-57
2022/09/25 06:22:38;;;;;;;97.97;43.03;;;;;;;;;;6214713;28;20053;-55
2022/09/25 06:25:39;;;;;;;107.78;45.33;;;;;;;;;;6212511;28;20153;-55
2022/09/25 06:28:40;;;;;;;105.13;45.47;;;;;;;;;;6214171;28;20046;-59
2022/09/25 06:31:41;;;;;;;106.25;45.70;;;;;;;;;;6214963;28;20053;-59
2022/09/25 06:34:41;;;;;;;94.72;39.20;;;;;;;;;;6214695;28;20100;-58
2022/09/25 06:37:42;;;;;;;99.25;43.13;;;;;;;;;;6215024;28;20156;-56
2022/09/25 06:40:42;;;;;;;107.55;42.15;;;;;;;;;;6213774;28;20045;-57
2022/09/25 06:43:43;;;;;;;92.88;40.33;;;;;;;;;;6213958;28;20089;-58
2022/09/25 06:46:48;;;;;;;94.05;39.70;;;;;;;;;;6214619;28;20054;-60
2022/09/25 06:49:50;;;;;;;95.22;38.80;;;;;;;;;;6213810;28;20070;-60
2022/09/25 06:52:50;;;;;;;96.65;41.33;;;;;;;;;;6211593;28;20046;-62
2022/09/25 06:55:52;;;;;;;94.57;40.72;;;;;;;;;;6212606;28;20413;-60
2022/09/25 06:58:53;;;;;;;;;;;;;;;;;;6219274;28;20052;-55
2022/09/25 07:01:54;;;;;;;99.80;41.30;;;;;;;;;;6218378;28;19925;-59
2022/09/25 07:04:54;;;;;;;125.30;53.03;;;;;;;;;;6219565;28;20060;-58
2022/09/25 07:07:55;;;;;;;103.45;45.50;;;;;;;;;;6219066;28;20058;-57
2022/09/25 07:10:57;;;;;;;149.63;66.15;;;;;;;;;;6221080;28;20804;-59
2022/09/25 07:13:58;;;;;;;;;;;;;;;;;;6219552;28;20052;-59
2022/09/25 07:16:58;;;;;;;118.65;46.17;;;;;;;;;;6217432;28;20575;-60
2022/09/25 07:19:59;;;;;;;118.57;50.25;;;;;;;;;;6218371;28;20046;-58
2022/09/25 07:23:03;;;;;;;130.20;63.90;;;;;;;;;;6217747;28;20044;-56
2022/09/25 07:26:21;;;;;;;127.63;55.58;;;;;;;;;;6216355;28;20081;-58
2022/09/25 07:29:21;;;;;;;119.32;50.90;;;;;;;;;;6218232;28;20045;-58
2022/09/25 07:32:22;;;;;;;111.95;47.80;;;;;;;;;;6217968;28;20037;-58
2022/09/25 07:35:23;;;;;;;121.35;52.35;;;;;;;;;;6213876;28;20054;-70
2022/09/25 07:38:23;;;;;;;129.15;56.42;;;;;;;;;;6214938;28;20045;-57
2022/09/25 07:41:24;;;;;;;134.23;59.00;;;;;;;;;;6216791;28;20409;-59
2022/09/25 07:44:25;;;;;;;118.57;51.17;;;;;;;;;;6217637;28;20501;-59
2022/09/25 07:47:26;;;;;;;128.00;54.88;;;;;;;;;;6216106;28;20302;-56
2022/09/25 07:50:30;;;;;;;107.55;46.95;;;;;;;;;;6216453;28;20172;-58
2022/09/25 07:53:31;;;;;;;104.15;46.38;;;;;;;;;;6216301;28;20050;-60
2022/09/25 07:56:33;;;;;;;109.63;47.92;;;;;;;;;;6216655;28;20053;-58
2022/09/25 07:59:33;;;;;;;105.38;46.13;;;;;;;;;;6218021;28;20183;-58
2022/09/25 08:02:34;;;;;;;113.88;49.13;;;;;;;;;;6218632;28;20041;-57
2022/09/25 08:05:34;;;;;;;119.35;52.47;;;;;;;;;;6218113;28;20054;-57
2022/09/25 08:08:35;;;;;;;114.82;48.47;;;;;;;;;;6219385;28;20034;-59
2022/09/25 08:11:36;;;;;;;112.38;48.20;;;;;;;;;;6218711;28;20038;-58
2022/09/25 08:14:37;;;;;;;120.03;51.45;;;;;;;;;;6217019;28;20141;-58
2022/09/25 08:17:38;;;;;;;130.73;56.08;;;;;;;;;;6219041;28;20096;-59
2022/09/25 08:20:39;;;;;;;134.43;57.97;;;;;;;;;;6218349;28;20057;-56
2022/09/25 08:23:40;;;;;;;133.65;56.22;;;;;;;;;;6218064;28;20038;-55
2022/09/25 08:26:41;;;;;;;143.52;59.03;;;;;;;;;;6218186;28;20136;-57
2022/09/25 08:29:42;;;;;;;167.68;75.38;;;;;;;;;;6218922;28;20544;-59
2022/09/25 08:32:42;;;;;;;177.38;72.60;;;;;;;;;;6218547;28;20074;-58
2022/09/25 08:35:43;;;;;;;180.65;73.80;;;;;;;;;;6217432;28;20144;-58
2022/09/25 08:38:44;;;;;;;141.00;56.70;;;;;;;;;;6217607;28;20045;-56
2022/09/25 08:41:53;;;;;;;124.43;53.90;;;;;;;;;;6217696;28;20044;-59
2022/09/25 08:51:51;;;;;;;159.32;61.75;;;;;;;;;;6214624;28;20050;-59
2022/09/25 08:54:53;;;;;;;179.45;69.63;;;;;;;;;;6217091;28;20132;-57
2022/09/25 08:57:54;;;;;;;166.23;70.50;;;;;;;;;;6215990;28;20054;-58
2022/09/25 09:00:59;;;;;;;140.73;59.40;;;;;;;;;;6217661;28;20096;-58
2022/09/25 09:04:12;;;;;;;126.45;54.60;;;;;;;;;;6217919;28;20173;-58
2022/09/25 09:07:33;;;;;;;131.40;54.08;;;;;;;;;;6217351;28;20056;-59
2022/09/25 09:10:59;;;;;;;142.35;57.00;;;;;;;;;;6215910;28;20080;-58
2022/09/25 09:14:14;;;;;;;134.02;56.45;;;;;;;;;;6216286;28;20061;-59
2022/09/25 09:17:22;;;;;;;116.30;50.45;;;;;;;;;;6216994;28;20065;-58
2022/09/25 09:20:47;;;;;;;125.70;53.40;;;;;;;;;;6216800;28;20524;-59
2022/09/25 09:23:57;;;;;;;135.18;56.00;;;;;;;;;;6196120;28;20081;-59
2022/09/25 09:27:02;;;;;;;135.70;55.50;;;;;;;;;;6216068;28;20428;-58
2022/09/25 09:30:21;;;;;;;125.22;51.78;;;;;;;;;;6216545;28;20144;-58
2022/09/25 09:33:48;;;;;;;113.57;50.00;;;;;;;;;;6213701;28;20112;-59
2022/09/25 09:37:02;;;;;;;115.93;46.03;;;;;;;;;;6213196;28;20444;-59
2022/09/25 09:40:16;;;;;;;107.93;45.80;;;;;;;;;;6212116;28;20828;-59
2022/09/25 09:43:42;;;;;;;112.82;46.55;;;;;;;;;;6212714;28;20428;-60
2022/09/25 09:46:43;;;;;;;106.70;42.80;;;;;;;;;;6212505;28;20045;-58
2022/09/25 09:50:04;;;;;;;96.10;42.92;;;;;;;;;;6213898;28;20099;-58
2022/09/25 09:53:17;;;;;;;79.05;35.25;;;;;;;;;;6214065;28;20061;-57
2022/09/25 09:56:24;;;;;;;81.65;35.13;;;;;;;;;;6215053;28;20148;-59
2022/09/25 09:59:30;;;;;;;76.72;34.92;;;;;;;;;;6214800;28;20030;-58
2022/09/25 10:02:40;;;;;;;75.75;34.50;;;;;;;;;;6213527;28;20076;-56
2022/09/25 10:05:46;;;;;;;77.55;37.88;;;;;;;;;;6214335;28;20042;-58
2022/09/25 10:08:47;;;;;;;79.25;36.47;;;;;;;;;;6213508;28;20622;-60
2022/09/25 10:11:58;;;;;;;74.82;33.85;;;;;;;;;;6213111;28;20068;-57
2022/09/25 10:15:03;;;;;;;82.78;38.30;;;;;;;;;;6212684;28;20054;-55
2022/09/25 10:18:05;;;;;;;62.20;29.27;;;;;;;;;;6214019;28;20046;-55
2022/09/25 10:21:15;;;;;;;57.30;27.08;;;;;;;;;;6212986;28;20065;-56
2022/09/25 10:24:53;;;;;;;63.33;28.65;;;;;;;;;;6210862;28;20053;-53
2022/09/25 10:27:54;;;;;;;65.80;30.45;;;;;;;;;;6129297;28;20625;-57
2022/09/25 10:30:56;;;;;;;58.33;28.50;;;;;;;;;;6214762;28;20056;-56
2022/09/25 10:34:00;;;;;;;59.63;28.25;;;;;;;;;;6212536;28;20468;-56
2022/09/25 10:37:18;;;;;;;61.47;30.05;;;;;;;;;;6211304;28;20100;-56
2022/09/25 10:40:32;;;;;;;60.67;28.20;;;;;;;;;;6213519;28;20462;-59
2022/09/25 10:43:33;;;;;;;71.88;37.35;;;;;;;;;;6213371;28;20046;-59
2022/09/25 10:50:12;;;;;;;60.15;27.95;;;;;;;;;;6212123;28;20042;-63
2022/09/25 10:53:33;;;;;;;60.05;29.08;;;;;;;;;;6212667;28;20132;-62
2022/09/25 10:56:37;;;;;;;49.95;23.40;;;;;;;;;;6211966;28;20041;-62
2022/09/25 10:59:39;;;;;;;46.55;24.73;;;;;;;;;;6212929;28;20140;-62
2022/09/25 11:02:45;;;;;;;51.83;25.02;;;;;;;;;;6212409;28;20994;-65
2022/09/25 11:05:55;;;;;;;56.42;25.50;;;;;;;;;;6214057;28;20042;-62
2022/09/25 11:09:13;;;;;;;67.65;30.23;;;;;;;;;;6214122;28;20141;-63
2022/09/25 11:12:20;;;;;;;86.22;43.25;;;;;;;;;;6213782;28;20068;-64
2022/09/25 11:15:33;;;;;;;61.03;28.40;;;;;;;;;;6212606;28;20076;-61
2022/09/25 11:18:50;;;;;;;59.97;29.55;;;;;;;;;;6215004;28;20100;-60
2022/09/25 11:22:07;;;;;;;64.82;26.77;;;;;;;;;;6214025;28;20042;-62
2022/09/25 11:25:30;;;;;;;50.15;23.67;;;;;;;;;;6212045;28;20049;-62
2022/09/25 11:28:44;;;;;;;47.03;23.60;;;;;;;;;;6211142;28;20070;-55
2022/09/25 11:31:57;;;;;;;59.88;32.03;;;;;;;;;;6211881;28;20128;-60
2022/09/25 11:35:04;;;;;;;55.42;25.65;;;;;;;;;;6212663;28;20049;-56
2022/09/25 11:42:08;;;;;;;66.55;30.25;;;;;;;;;;6210844;28;20049;-59
2022/09/25 11:45:29;;;;;;;65.88;27.83;;;;;;;;;;6210040;28;20038;-58
2022/09/25 11:48:53;;;;;;;62.20;30.45;;;;;;;;;;6213390;28;20053;-57
2022/09/25 11:52:18;;;;;;;64.22;30.48;;;;;;;;;;6216231;28;20045;-58
2022/09/25 11:55:21;;;;;;;62.53;30.05;;;;;;;;;;6216956;28;20052;-54
2022/09/25 11:59:14;;;;;;;63.00;30.88;;;;;;;;;;6219431;28;20527;-54
2022/09/25 12:02:27;;;;;;;59.53;28.40;;;;;;;;;;6111367;28;20607;-54
2022/09/25 12:05:40;;;;;;;59.03;28.13;;;;;;;;;;6219040;28;20524;-56
2022/09/25 12:09:29;;;;;;;50.35;25.83;;;;;;;;;;6218179;28;20053;-56
2022/09/25 12:12:32;;;;;;;44.78;24.27;;;;;;;;;;6205751;28;20607;-56
2022/09/25 12:15:55;;;;;;;44.95;21.60;;;;;;;;;;6215994;28;20079;-55
2022/09/25 12:19:12;;;;;;;34.15;18.17;;;;;;;;;;6218347;28;20148;-55
2022/09/25 12:22:40;;;;;;;34.72;18.50;;;;;;;;;;6217615;28;20046;-57
2022/09/25 12:26:02;;;;;;;30.42;15.85;;;;;;;;;;6215838;28;20538;-57
2022/09/25 12:29:03;;;;;;;;;;;;;;;;;;6217592;28;20050;-60
2022/09/25 12:32:45;;;;;;;42.60;21.92;;;;;;;;;;6217300;28;20011;-57
2022/09/25 12:35:56;;;;;;;44.75;23.33;;;;;;;;;;6216598;28;20568;-56
2022/09/25 12:39:19;;;;;;;48.95;26.10;;;;;;;;;;6215721;28;20136;-58
2022/09/25 12:42:43;;;;;;;53.25;26.00;;;;;;;;;;6213829;28;20049;-58
2022/09/25 12:45:53;;;;;;;64.32;28.67;;;;;;;;;;6167490;28;20054;-55
2022/09/25 12:49:10;;;;;;;64.43;29.35;;;;;;;;;;6168538;28;20050;-57
2022/09/25 12:52:25;;;;;;;54.70;28.63;;;;;;;;;;6168462;28;20438;-55
2022/09/25 12:55:57;;;;;;;52.83;26.55;;;;;;;;;;6165867;28;20042;-59
2022/09/25 12:59:00;;;;;;;55.38;27.63;;;;;;;;;;6167283;28;20491;-52
2022/09/25 13:02:17;;;;;;;69.40;32.65;;;;;;;;;;6169197;28;20054;-54
2022/09/25 13:05:36;;;;;;;71.03;31.33;;;;;;;;;;6168651;28;20047;-51
2022/09/25 13:08:53;;;;;;;50.53;24.38;;;;;;;;;;6167385;28;20518;-53
2022/09/25 13:12:16;;;;;;;50.90;26.23;;;;;;;;;;6168429;28;20162;-53
2022/09/25 13:15:24;;;;;;;62.58;27.33;;;;;;;;;;6163741;28;20076;-54
2022/09/25 13:18:27;;;;;;;68.05;34.10;;;;;;;;;;6168731;28;20149;-53
2022/09/25 13:21:35;;;;;;;74.88;42.17;;;;;;;;;;6166983;28;20042;-58
2022/09/25 13:24:42;;;;;;;58.00;28.65;;;;;;;;;;6167541;28;20053;-55
2022/09/25 13:27:45;;;;;;;72.75;29.75;;;;;;;;;;6168249;28;20046;-54
2022/09/25 13:31:01;;;;;;;100.18;40.10;;;;;;;;;;6167527;28;20516;-53
2022/09/25 13:34:05;;;;;;;115.47;44.25;;;;;;;;;;6167322;28;20051;-50
2022/09/25 13:37:09;;;;;;;52.67;25.02;;;;;;;;;;6168252;28;20410;-52
2022/09/25 13:43:37;;;;;;;60.72;29.77;;;;;;;;;;6187342;28;20192;-54
2022/09/25 13:46:38;;;;;;;67.18;36.05;;;;;;;;;;6215867;28;20049;-56
2022/09/25 13:49:49;;;;;;;65.45;36.65;;;;;;;;;;6216294;28;20077;-55
2022/09/25 13:53:32;;;;;;;49.22;26.00;;;;;;;;;;6214331;28;20457;-57
2022/09/25 13:56:41;;;;;;;48.50;24.48;;;;;;;;;;6212612;28;20092;-56
2022/09/25 13:59:41;;;;;;;48.25;24.63;;;;;;;;;;6215204;28;20366;-58
2022/09/25 14:02:45;;;;;;;51.50;24.20;;;;;;;;;;6214467;28;20137;-56
2022/09/25 14:05:45;;;;;;;51.97;25.70;;;;;;;;;;6215179;28;20143;-55
2022/09/25 14:08:48;;;;;;;60.45;26.30;;;;;;;;;;6214208;28;20045;-56
2022/09/25 14:12:17;;;;;;;54.60;28.02;;;;;;;;;;6214478;28;20050;-57
2022/09/25 14:15:34;;;;;;;54.00;28.52;;;;;;;;;;6215652;28;20068;-55
2022/09/25 14:18:39;;;;;;;51.92;24.13;;;;;;;;;;6214681;28;20097;-56
2022/09/25 14:21:43;;;;;;;136.20;57.22;;;;;;;;;;6213772;28;20042;-58
2022/09/25 14:24:44;;;;;;;55.45;26.98;;;;;;;;;;6214890;28;20041;-56
2022/09/25 14:27:50;;;;;;;70.38;33.00;;;;;;;;;;6213921;28;20068;-55
2022/09/25 14:31:18;;;;;;;67.00;38.35;;;;;;;;;;6212752;28;20092;-56
2022/09/25 14:34:52;;;;;;;58.38;33.58;;;;;;;;;;6213594;28;20048;-56
2022/09/25 14:38:17;;;;;;;51.72;25.95;;;;;;;;;;6213155;28;20049;-55
2022/09/25 14:41:53;;;;;;;55.17;25.77;;;;;;;;;;6213758;28;20062;-56
2022/09/25 14:44:56;;;;;;;51.28;26.15;;;;;;;;;;6214210;28;20042;-56
2022/09/25 14:47:58;;;;;;;55.45;26.75;;;;;;;;;;6212528;28;20555;-57
2022/09/25 14:51:01;;;;;;;;;;;;;;;;;;6214987;28;20050;-58
2022/09/25 14:54:04;;;;;;;47.97;24.77;;;;;;;;;;6193699;28;20273;-57
2022/09/25 14:57:07;;;;;;;75.68;38.38;;;;;;;;;;6197420;28;20037;-58
2022/09/25 15:00:16;;;;;;;87.25;45.10;;;;;;;;;;6199819;28;20945;-59
2022/09/25 15:03:20;;;;;;;77.70;35.83;;;;;;;;;;6197451;28;20042;-60
2022/09/25 15:06:27;;;;;;;83.95;35.67;;;;;;;;;;6199741;28;20081;-56
2022/09/25 15:09:46;;;;;;;91.63;40.22;;;;;;;;;;6182727;28;20058;-58
2022/09/25 15:12:46;;;;;;;83.05;35.15;;;;;;;;;;6193130;28;20433;-56
2022/09/25 15:19:21;;;;;;;81.88;35.85;;;;;;;;;;6192556;28;20047;-53
2022/09/25 15:22:24;;;;;;;90.88;38.33;;;;;;;;;;6191446;28;21785;-57
2022/09/25 15:25:38;;;;;;;95.30;40.08;;;;;;;;;;6196339;28;20608;-56
2022/09/25 15:28:40;;;;;;;109.68;43.20;;;;;;;;;;6197027;28;20099;-60
2022/09/25 15:31:41;;;;;;;109.72;41.20;;;;;;;;;;6193323;28;20146;-58
2022/09/25 15:34:42;;;;;;;106.07;39.20;;;;;;;;;;6195438;28;20089;-57
2022/09/25 15:37:43;;;;;;;92.43;37.15;;;;;;;;;;6198038;28;20058;-57
2022/09/25 15:40:53;;;;;;;75.85;34.97;;;;;;;;;;6194993;28;20580;-59
2022/09/25 15:44:18;;;;;;;85.60;38.05;;;;;;;;;;6193758;28;20529;-56
2022/09/25 15:47:39;;;;;;;84.20;36.90;;;;;;;;;;6197584;28;20057;-58
2022/09/25 15:50:43;;;;;;;80.57;38.17;;;;;;;;;;6193294;28;20136;-63
2022/09/25 15:54:09;;;;;;;68.80;34.80;;;;;;;;;;6193654;28;20054;-63
2022/09/25 15:57:16;;;;;;;72.70;37.22;;;;;;;;;;6192706;28;20038;-63
2022/09/25 16:07:30;;;;;;;63.58;30.13;;;;;;;;;;6196337;28;21112;-65
2022/09/25 16:10:32;;;;;;;66.38;30.65;;;;;;;;;;6193492;28;20150;-64
2022/09/25 16:13:35;;;;;;;67.10;31.43;;;;;;;;;;6190869;28;20046;-60
2022/09/25 16:16:45;;;;;;;65.75;30.27;;;;;;;;;;6195701;28;20311;-59
2022/09/25 16:20:02;;;;;;;74.43;40.80;;;;;;;;;;6192361;28;20061;-64
2022/09/25 16:23:05;;;;;;;68.30;34.95;;;;;;;;;;6190638;28;20153;-63
2022/09/25 16:26:21;;;;;;;76.03;37.63;;;;;;;;;;6201078;28;20054;-60
2022/09/25 16:29:43;;;;;;;89.47;41.20;;;;;;;;;;6196346;28;20053;-60
2022/09/25 16:32:47;;;;;;;87.57;40.78;;;;;;;;;;6190806;28;20058;-60
2022/09/25 16:35:48;;;;;;;91.50;40.85;;;;;;;;;;6174761;28;20043;-55
2022/09/25 16:39:08;;;;;;;94.80;43.78;;;;;;;;;;6196581;28;20058;-57
2022/09/25 16:42:34;;;;;;;97.70;42.03;;;;;;;;;;6194393;28;20061;-56
2022/09/25 16:45:34;;;;;;;90.90;41.47;;;;;;;;;;6195330;28;20071;-56
2022/09/25 16:48:37;;;;;;;93.10;43.92;;;;;;;;;;6190289;28;20050;-59
2022/09/25 16:51:44;;;;;;;114.82;49.45;;;;;;;;;;6185081;28;20054;-59
2022/09/25 16:54:51;;;;;;;124.32;56.10;;;;;;;;;;6157606;28;20051;-57
2022/09/25 16:57:52;;;;;;;135.32;61.03;;;;;;;;;;6154580;28;20054;-54
2022/09/25 17:00:54;;;;;;;155.77;67.57;;;;;;;;;;6156380;28;20055;-59
2022/09/25 17:03:58;;;;;;;163.32;69.20;;;;;;;;;;6151500;28;20672;-56
2022/09/25 17:06:59;;;;;;;169.00;65.45;;;;;;;;;;6155298;28;20158;-59
2022/09/25 17:10:00;;;;;;;127.30;53.22;;;;;;;;;;6156808;28;20058;-56
2022/09/25 17:13:01;;;;;;;128.23;53.03;;;;;;;;;;6154527;28;20082;-55
2022/09/25 17:16:02;;;;;;;130.37;55.97;;;;;;;;;;6155728;28;20529;-57
2022/09/25 17:19:13;;;;;;;119.47;54.30;;;;;;;;;;6155827;28;20399;-57
2022/09/25 17:22:13;;;;;;;121.63;56.17;;;;;;;;;;6151338;28;20055;-59
2022/09/25 17:25:24;;;;;;;115.63;53.85;;;;;;;;;;6157336;28;20051;-58
2022/09/25 17:28:25;;;;;;;129.95;55.78;;;;;;;;;;6156133;28;20465;-59
2022/09/25 17:31:26;;;;;;;129.63;58.37;;;;;;;;;;6154554;28;20684;-59
2022/09/25 17:34:29;;;;;;;147.07;67.05;;;;;;;;;;6157415;28;20136;-59
2022/09/25 17:37:30;;;;;;;153.07;73.93;;;;;;;;;;6154606;28;20069;-58
2022/09/25 17:40:31;;;;;;;160.55;75.10;;;;;;;;;;6154337;28;20464;-58
2022/09/25 17:43:32;;;;;;;;;;;;;;;;;;6148272;28;20138;-59
2022/09/25 17:46:33;;;;;;;166.23;71.63;;;;;;;;;;6141106;28;19973;-58
2022/09/25 17:49:33;;;;;;;172.27;74.28;;;;;;;;;;6140471;28;20638;-59
2022/09/25 17:52:34;;;;;;;162.80;69.50;;;;;;;;;;6139365;28;20097;-57
2022/09/25 17:55:35;;;;;;;156.98;67.22;;;;;;;;;;6140184;28;20126;-59
2022/09/25 17:58:35;;;;;;;156.68;64.43;;;;;;;;;;6141692;28;20134;-60
2022/09/25 18:01:36;;;;;;;156.05;61.97;;;;;;;;;;6138626;28;20130;-60
2022/09/25 18:04:37;;;;;;;160.27;64.10;;;;;;;;;;6142052;28;20050;-59
2022/09/25 18:07:38;;;;;;;175.05;66.22;;;;;;;;;;6143865;28;20785;-60
2022/09/25 18:10:40;;;;;;;154.48;64.00;;;;;;;;;;6142626;28;20059;-61
2022/09/25 18:13:41;;;;;;;166.15;65.65;;;;;;;;;;6140355;28;20054;-60
2022/09/25 18:16:43;;;;;;;177.47;69.40;;;;;;;;;;6139227;28;20049;-61
2022/09/25 18:23:03;;;;;;;159.15;66.45;;;;;;;;;;6138035;28;20047;-60
2022/09/25 18:26:07;;;;;;;160.13;61.22;;;;;;;;;;6142954;28;20050;-56
2022/09/25 18:29:11;;;;;;;159.00;65.00;;;;;;;;;;6141190;28;20923;-58
2022/09/25 18:32:12;;;;;;;154.07;63.78;;;;;;;;;;6136959;28;20077;-60
2022/09/25 18:35:14;;;;;;;146.63;60.53;;;;;;;;;;6140605;28;20051;-60
2022/09/25 18:38:14;;;;;;;131.70;55.13;;;;;;;;;;6145495;28;20133;-60
2022/09/25 18:41:15;;;;;;;157.52;60.97;;;;;;;;;;6141384;28;20055;-58